sensor_id;sensor_type;location;lat;lon;timestamp;temperature;humidity
2212;DHT22;48849;48.758;9.158;2023-04-24T00:00:43;14.40;99.90
2212;DHT22;48849;48.758;9.158;2023-04-24T00:03:12;14.90;99.90
2212;DHT22;48849;48.758;9.158;2023-04-24T00:05:39;14.40;99.90
2212;DHT22;48849;48.758;9.158;2023-04-24T00:10:37;14.50;99.90
2212;DHT22;48849;48.758;9.158;2023-04-24T00:13:04;14.50;99.90
2212;DHT22;48849;48.758;9.158;2023-04-24T00:15:31;14.40;99.90
2212;DHT22;48849;48.758;9.158;2023-04-24T00:17:57;14.40;99.90
2212;DHT22;48849;48.758;9.158;2023-04-24T00:20:28;14.40;99.90
2212;DHT22;48849;48.758;9.158;2023-04-24T00:22:58;14.50;99.90
2212;DHT22;48849;48.758;9.158;2023-04-24T00:25:25;14.50;99.90
2212;DHT22;48849;48.758;9.158;2023-04-24T00:27:52;14.50;99.90
2212;DHT22;48849;48.758;9.158;2023-04-24T00:30:19;14.50;99.90
2212;DHT22;48849;48.758;9.158;2023-04-24T00:32:46;14.50;99.90
2212;DHT22;48849;48.758;9.158;2023-04-24T00:35:12;14.50;99.90
2212;DHT22;48849;48.758;9.158;2023-04-24T00:37:41;14.50;99.90
2212;DHT22;48849;48.758;9.158;2023-04-24T00:40:09;14.50;99.90
2212;DHT22;48849;48.758;9.158;2023-04-24T00:42:37;14.50;99.90
2212;DHT22;48849;48.758;9.158;2023-04-24T00:45:04;14.50;99.90
2212;DHT22;48849;48.758;9.158;2023-04-24T00:47:32;14.50;99.90
2212;DHT22;48849;48.758;9.158;2023-04-24T00:50:03;14.50;99.90
2212;DHT22;48849;48.758;9.158;2023-04-24T00:52:31;14.50;99.90
2212;DHT22;48849;48.758;9.158;2023-04-24T00:55:01;14.50;99.90
2212;DHT22;48849;48.758;9.158;2023-04-24T00:57:29;14.50;99.90
2212;DHT22;48849;48.758;9.158;2023-04-24T00:59:57;14.50;99.90
2212;DHT22;48849;48.758;9.158;2023-04-24T01:02:24;14.50;99.90
2212;DHT22;48849;48.758;9.158;2023-04-24T01:05:00;14.50;99.90
2212;DHT22;48849;48.758;9.158;2023-04-24T01:07:27;14.60;99.90
2212;DHT22;48849;48.758;9.158;2023-04-24T01:09:54;14.60;99.90
2212;DHT22;48849;48.758;9.158;2023-04-24T01:12:23;14.60;99.90
2212;DHT22;48849;48.758;9.158;2023-04-24T01:14:50;14.60;99.90
2212;DHT22;48849;48.758;9.158;2023-04-24T01:17:19;14.50;99.90
2212;DHT22;48849;48.758;9.158;2023-04-24T01:19:49;14.60;99.90
2212;DHT22;48849;48.758;9.158;2023-04-24T01:22:21;14.50;99.90
2212;DHT22;48849;48.758;9.158;2023-04-24T01:24:48;14.50;99.90
2212;DHT22;48849;48.758;9.158;2023-04-24T01:27:15;14.50;99.90
2212;DHT22;48849;48.758;9.158;2023-04-24T01:29:43;14.50;99.90
2212;DHT22;48849;48.758;9.158;2023-04-24T01:32:11;14.50;99.90
2212;DHT22;48849;48.758;9.158;2023-04-24T01:34:39;14.50;99.90
2212;DHT22;48849;48.758;9.158;2023-04-24T01:37:08;14.50;99.90
2212;DHT22;48849;48.758;9.158;2023-04-24T01:39:37;14.50;99.90
2212;DHT22;48849;48.758;9.158;2023-04-24T01:42:05;14.50;99.90
2212;DHT22;48849;48.758;9.158;2023-04-24T01:44:33;14.40;99.90
2212;DHT22;48849;48.758;9.158;2023-04-24T01:47:00;14.40;99.90
2212;DHT22;48849;48.758;9.158;2023-04-24T01:49:27;14.40;99.90
2212;DHT22;48849;48.758;9.158;2023-04-24T01:51:55;14.40;99.90
2212;DHT22;48849;48.758;9.158;2023-04-24T01:54:22;14.50;99.90
2212;DHT22;48849;48.758;9.158;2023-04-24T01:56:51;14.40;99.90
2212;DHT22;48849;48.758;9.158;2023-04-24T01:59:20;14.50;99.90
2212;DHT22;48849;48.758;9.158;2023-04-24T02:01:48;14.40;99.90
2212;DHT22;48849;48.758;9.158;2023-04-24T02:04:15;14.50;99.90
2212;DHT22;48849;48.758;9.158;2023-04-24T02:06:43;14.50;99.90
2212;DHT22;48849;48.758;9.158;2023-04-24T02:09:12;14.50;99.90
2212;DHT22;48849;48.758;9.158;2023-04-24T02:11:41;14.50;99.90
2212;DHT22;48849;48.758;9.158;2023-04-24T02:14:10;14.40;99.90
2212;DHT22;48849;48.758;9.158;2023-04-24T02:16:38;14.50;99.90
2212;DHT22;48849;48.758;9.158;2023-04-24T02:19:05;14.40;99.90
2212;DHT22;48849;48.758;9.158;2023-04-24T02:21:32;14.40;99.90
2212;DHT22;48849;48.758;9.158;2023-04-24T02:24:00;14.40;99.90
2212;DHT22;48849;48.758;9.158;2023-04-24T02:26:27;14.40;99.90
2212;DHT22;48849;48.758;9.158;2023-04-24T02:28:54;14.40;99.90
2212;DHT22;48849;48.758;9.158;2023-04-24T02:31:27;14.40;99.90
2212;DHT22;48849;48.758;9.158;2023-04-24T02:33:55;14.40;99.90
2212;DHT22;48849;48.758;9.158;2023-04-24T02:36:21;14.30;99.90
2212;DHT22;48849;48.758;9.158;2023-04-24T02:38:48;14.30;99.90
2212;DHT22;48849;48.758;9.158;2023-04-24T02:41:15;14.40;99.90
2212;DHT22;48849;48.758;9.158;2023-04-24T02:43:44;14.30;99.90
2212;DHT22;48849;48.758;9.158;2023-04-24T02:46:13;14.30;99.90
2212;DHT22;48849;48.758;9.158;2023-04-24T02:48:42;14.20;99.90
2212;DHT22;48849;48.758;9.158;2023-04-24T02:51:09;14.30;99.90
2212;DHT22;48849;48.758;9.158;2023-04-24T02:53:38;14.30;99.90
2212;DHT22;48849;48.758;9.158;2023-04-24T02:56:05;14.30;99.90
2212;DHT22;48849;48.758;9.158;2023-04-24T02:58:42;14.40;99.90
2212;DHT22;48849;48.758;9.158;2023-04-24T03:01:09;14.30;99.90
2212;DHT22;48849;48.758;9.158;2023-04-24T03:03:37;14.30;99.90
2212;DHT22;48849;48.758;9.158;2023-04-24T03:06:09;14.40;99.90
2212;DHT22;48849;48.758;9.158;2023-04-24T03:08:36;14.40;99.90
2212;DHT22;48849;48.758;9.158;2023-04-24T03:11:04;14.40;99.90
2212;DHT22;48849;48.758;9.158;2023-04-24T03:13:32;14.30;99.90
2212;DHT22;48849;48.758;9.158;2023-04-24T03:15:58;14.40;99.90
2212;DHT22;48849;48.758;9.158;2023-04-24T03:18:25;14.30;99.90
2212;DHT22;48849;48.758;9.158;2023-04-24T03:20:53;14.30;99.90
2212;DHT22;48849;48.758;9.158;2023-04-24T03:23:23;14.30;99.90
2212;DHT22;48849;48.758;9.158;2023-04-24T03:25:50;14.30;99.90
2212;DHT22;48849;48.758;9.158;2023-04-24T03:28:17;14.30;99.90
2212;DHT22;48849;48.758;9.158;2023-04-24T03:30:45;14.20;99.90
2212;DHT22;48849;48.758;9.158;2023-04-24T03:33:12;14.20;99.90
2212;DHT22;48849;48.758;9.158;2023-04-24T03:35:39;14.10;99.90
2212;DHT22;48849;48.758;9.158;2023-04-24T03:38:10;14.20;99.90
2212;DHT22;48849;48.758;9.158;2023-04-24T03:40:41;14.20;99.90
2212;DHT22;48849;48.758;9.158;2023-04-24T03:43:11;14.10;99.90
2212;DHT22;48849;48.758;9.158;2023-04-24T03:45:38;14.10;99.90
2212;DHT22;48849;48.758;9.158;2023-04-24T03:48:05;14.10;99.90
2212;DHT22;48849;48.758;9.158;2023-04-24T03:50:33;14.10;99.90
2212;DHT22;48849;48.758;9.158;2023-04-24T03:53:00;14.20;99.90
2212;DHT22;48849;48.758;9.158;2023-04-24T03:55:30;14.20;99.90
2212;DHT22;48849;48.758;9.158;2023-04-24T03:58:04;14.10;99.90
2212;DHT22;48849;48.758;9.158;2023-04-24T04:00:33;14.10;99.90
2212;DHT22;48849;48.758;9.158;2023-04-24T04:03:00;14.10;99.90
2212;DHT22;48849;48.758;9.158;2023-04-24T04:05:30;14.10;99.90
2212;DHT22;48849;48.758;9.158;2023-04-24T04:08:00;14.10;99.90
2212;DHT22;48849;48.758;9.158;2023-04-24T04:10:28;14.10;99.90
2212;DHT22;48849;48.758;9.158;2023-04-24T04:12:55;14.10;99.90
2212;DHT22;48849;48.758;9.158;2023-04-24T04:15:27;14.10;99.90
2212;DHT22;48849;48.758;9.158;2023-04-24T04:17:57;14.00;99.90
2212;DHT22;48849;48.758;9.158;2023-04-24T04:20:25;14.00;99.90
2212;DHT22;48849;48.758;9.158;2023-04-24T04:22:52;14.00;99.90
2212;DHT22;48849;48.758;9.158;2023-04-24T04:25:19;14.00;99.90
2212;DHT22;48849;48.758;9.158;2023-04-24T04:27:46;14.00;99.90
2212;DHT22;48849;48.758;9.158;2023-04-24T04:30:14;14.00;99.90
2212;DHT22;48849;48.758;9.158;2023-04-24T04:32:43;14.10;99.90
2212;DHT22;48849;48.758;9.158;2023-04-24T04:35:10;14.10;99.90
2212;DHT22;48849;48.758;9.158;2023-04-24T04:37:37;14.00;99.90
2212;DHT22;48849;48.758;9.158;2023-04-24T04:40:09;14.00;99.90
2212;DHT22;48849;48.758;9.158;2023-04-24T04:42:37;14.00;99.90
2212;DHT22;48849;48.758;9.158;2023-04-24T04:45:06;14.10;99.90
2212;DHT22;48849;48.758;9.158;2023-04-24T04:47:35;14.10;99.90
2212;DHT22;48849;48.758;9.158;2023-04-24T04:50:04;14.10;99.90
2212;DHT22;48849;48.758;9.158;2023-04-24T04:52:33;14.00;99.90
2212;DHT22;48849;48.758;9.158;2023-04-24T04:55:00;13.90;99.90
2212;DHT22;48849;48.758;9.158;2023-04-24T04:57:27;14.00;99.90
2212;DHT22;48849;48.758;9.158;2023-04-24T04:59:54;13.90;99.90
2212;DHT22;48849;48.758;9.158;2023-04-24T05:02:24;13.90;99.90
2212;DHT22;48849;48.758;9.158;2023-04-24T05:04:51;13.90;99.90
2212;DHT22;48849;48.758;9.158;2023-04-24T05:07:20;13.90;99.90
2212;DHT22;48849;48.758;9.158;2023-04-24T05:09:47;13.90;99.90
2212;DHT22;48849;48.758;9.158;2023-04-24T05:12:14;13.80;99.90
2212;DHT22;48849;48.758;9.158;2023-04-24T05:14:40;13.80;99.90
2212;DHT22;48849;48.758;9.158;2023-04-24T05:17:08;13.80;99.90
2212;DHT22;48849;48.758;9.158;2023-04-24T05:19:35;13.80;99.90
2212;DHT22;48849;48.758;9.158;2023-04-24T05:22:09;13.80;99.90
2212;DHT22;48849;48.758;9.158;2023-04-24T05:24:44;13.80;99.90
2212;DHT22;48849;48.758;9.158;2023-04-24T05:27:11;13.70;99.90
2212;DHT22;48849;48.758;9.158;2023-04-24T05:29:39;13.70;99.90
2212;DHT22;48849;48.758;9.158;2023-04-24T05:32:06;13.60;99.90
2212;DHT22;48849;48.758;9.158;2023-04-24T05:34:35;13.60;99.90
2212;DHT22;48849;48.758;9.158;2023-04-24T05:37:02;13.70;99.90
2212;DHT22;48849;48.758;9.158;2023-04-24T05:39:36;13.60;99.90
2212;DHT22;48849;48.758;9.158;2023-04-24T05:42:05;13.50;99.90
2212;DHT22;48849;48.758;9.158;2023-04-24T05:44:32;13.60;99.90
2212;DHT22;48849;48.758;9.158;2023-04-24T05:46:59;13.60;99.90
2212;DHT22;48849;48.758;9.158;2023-04-24T05:49:29;13.60;99.90
2212;DHT22;48849;48.758;9.158;2023-04-24T05:51:57;13.60;99.90
2212;DHT22;48849;48.758;9.158;2023-04-24T05:54:24;13.60;99.90
2212;DHT22;48849;48.758;9.158;2023-04-24T05:56:51;13.60;99.90
2212;DHT22;48849;48.758;9.158;2023-04-24T05:59:21;13.70;99.90
2212;DHT22;48849;48.758;9.158;2023-04-24T06:01:48;13.70;99.90
2212;DHT22;48849;48.758;9.158;2023-04-24T06:04:15;13.70;99.90
2212;DHT22;48849;48.758;9.158;2023-04-24T06:06:44;13.60;99.90
2212;DHT22;48849;48.758;9.158;2023-04-24T06:09:11;13.60;99.90
2212;DHT22;48849;48.758;9.158;2023-04-24T06:11:38;13.60;99.90
2212;DHT22;48849;48.758;9.158;2023-04-24T06:14:05;13.70;99.90
2212;DHT22;48849;48.758;9.158;2023-04-24T06:16:33;13.60;99.90
2212;DHT22;48849;48.758;9.158;2023-04-24T06:19:01;13.60;99.90
2212;DHT22;48849;48.758;9.158;2023-04-24T06:21:28;13.70;99.90
2212;DHT22;48849;48.758;9.158;2023-04-24T06:23:57;13.70;99.90
2212;DHT22;48849;48.758;9.158;2023-04-24T06:26:24;13.70;99.90
2212;DHT22;48849;48.758;9.158;2023-04-24T06:28:52;13.70;99.90
2212;DHT22;48849;48.758;9.158;2023-04-24T06:31:20;13.70;99.90
2212;DHT22;48849;48.758;9.158;2023-04-24T06:33:49;13.70;99.90
2212;DHT22;48849;48.758;9.158;2023-04-24T06:36:16;13.70;99.90
2212;DHT22;48849;48.758;9.158;2023-04-24T06:39:04;13.80;99.90
2212;DHT22;48849;48.758;9.158;2023-04-24T06:41:32;13.80;99.90
2212;DHT22;48849;48.758;9.158;2023-04-24T06:43:59;13.80;99.90
2212;DHT22;48849;48.758;9.158;2023-04-24T06:46:25;13.80;99.90
2212;DHT22;48849;48.758;9.158;2023-04-24T06:48:54;13.90;99.90
2212;DHT22;48849;48.758;9.158;2023-04-24T06:51:22;13.90;99.90
2212;DHT22;48849;48.758;9.158;2023-04-24T06:53:51;13.90;99.90
2212;DHT22;48849;48.758;9.158;2023-04-24T06:56:19;13.90;99.90
2212;DHT22;48849;48.758;9.158;2023-04-24T06:58:46;14.00;99.90
2212;DHT22;48849;48.758;9.158;2023-04-24T07:01:13;14.00;99.90
2212;DHT22;48849;48.758;9.158;2023-04-24T07:03:39;14.10;99.90
2212;DHT22;48849;48.758;9.158;2023-04-24T07:06:09;14.10;99.90
2212;DHT22;48849;48.758;9.158;2023-04-24T07:08:36;14.10;99.90
2212;DHT22;48849;48.758;9.158;2023-04-24T07:11:03;14.20;99.90
2212;DHT22;48849;48.758;9.158;2023-04-24T07:13:31;14.20;99.90
2212;DHT22;48849;48.758;9.158;2023-04-24T07:15:57;14.20;99.90
2212;DHT22;48849;48.758;9.158;2023-04-24T07:18:24;14.30;99.90
2212;DHT22;48849;48.758;9.158;2023-04-24T07:20:51;14.30;99.90
2212;DHT22;48849;48.758;9.158;2023-04-24T07:23:19;14.30;99.90
2212;DHT22;48849;48.758;9.158;2023-04-24T07:25:46;14.30;99.90
2212;DHT22;48849;48.758;9.158;2023-04-24T07:28:13;14.30;99.90
2212;DHT22;48849;48.758;9.158;2023-04-24T07:30:40;14.40;99.90
2212;DHT22;48849;48.758;9.158;2023-04-24T07:33:07;14.30;99.90
2212;DHT22;48849;48.758;9.158;2023-04-24T07:35:36;14.30;99.90
2212;DHT22;48849;48.758;9.158;2023-04-24T07:38:03;14.30;99.90
2212;DHT22;48849;48.758;9.158;2023-04-24T07:40:32;14.30;99.90
2212;DHT22;48849;48.758;9.158;2023-04-24T07:42:59;14.30;99.90
2212;DHT22;48849;48.758;9.158;2023-04-24T07:45:26;14.30;99.90
2212;DHT22;48849;48.758;9.158;2023-04-24T07:47:53;14.40;99.90
2212;DHT22;48849;48.758;9.158;2023-04-24T07:50:20;14.40;99.90
2212;DHT22;48849;48.758;9.158;2023-04-24T07:52:47;14.40;99.90
2212;DHT22;48849;48.758;9.158;2023-04-24T07:55:14;14.50;99.90
2212;DHT22;48849;48.758;9.158;2023-04-24T07:57:42;14.50;99.90
2212;DHT22;48849;48.758;9.158;2023-04-24T08:00:10;14.40;99.90
2212;DHT22;48849;48.758;9.158;2023-04-24T08:02:37;14.30;99.90
2212;DHT22;48849;48.758;9.158;2023-04-24T08:05:04;14.30;99.90
2212;DHT22;48849;48.758;9.158;2023-04-24T08:07:31;14.30;99.90
2212;DHT22;48849;48.758;9.158;2023-04-24T08:09:58;14.30;99.90
2212;DHT22;48849;48.758;9.158;2023-04-24T08:12:25;14.30;99.90
2212;DHT22;48849;48.758;9.158;2023-04-24T08:14:54;14.30;99.90
2212;DHT22;48849;48.758;9.158;2023-04-24T08:17:21;14.30;99.90
2212;DHT22;48849;48.758;9.158;2023-04-24T08:19:47;14.30;99.90
2212;DHT22;48849;48.758;9.158;2023-04-24T08:22:16;14.30;99.90
2212;DHT22;48849;48.758;9.158;2023-04-24T08:24:43;14.30;99.90
2212;DHT22;48849;48.758;9.158;2023-04-24T08:27:10;14.40;99.90
2212;DHT22;48849;48.758;9.158;2023-04-24T08:29:37;14.40;99.90
2212;DHT22;48849;48.758;9.158;2023-04-24T08:32:05;14.50;99.90
2212;DHT22;48849;48.758;9.158;2023-04-24T08:34:32;14.60;99.90
2212;DHT22;48849;48.758;9.158;2023-04-24T08:36:59;14.60;99.90
2212;DHT22;48849;48.758;9.158;2023-04-24T08:39:25;14.70;99.90
2212;DHT22;48849;48.758;9.158;2023-04-24T08:41:53;14.70;99.90
2212;DHT22;48849;48.758;9.158;2023-04-24T08:44:20;14.80;99.90
2212;DHT22;48849;48.758;9.158;2023-04-24T08:46:48;14.80;99.90
2212;DHT22;48849;48.758;9.158;2023-04-24T08:49:18;14.80;99.90
2212;DHT22;48849;48.758;9.158;2023-04-24T08:51:48;14.80;99.90
2212;DHT22;48849;48.758;9.158;2023-04-24T08:54:16;14.70;99.90
2212;DHT22;48849;48.758;9.158;2023-04-24T08:56:45;14.60;99.90
2212;DHT22;48849;48.758;9.158;2023-04-24T08:59:14;14.60;99.90
2212;DHT22;48849;48.758;9.158;2023-04-24T09:01:41;14.70;99.90
2212;DHT22;48849;48.758;9.158;2023-04-24T09:04:09;14.80;99.90
2212;DHT22;48849;48.758;9.158;2023-04-24T09:06:39;14.80;99.90
2212;DHT22;48849;48.758;9.158;2023-04-24T09:09:07;14.80;99.90
2212;DHT22;48849;48.758;9.158;2023-04-24T09:11:35;14.90;99.90
2212;DHT22;48849;48.758;9.158;2023-04-24T09:14:03;14.90;99.90
2212;DHT22;48849;48.758;9.158;2023-04-24T09:16:31;14.80;99.90
2212;DHT22;48849;48.758;9.158;2023-04-24T09:19:00;14.90;99.90
2212;DHT22;48849;48.758;9.158;2023-04-24T09:21:31;14.90;99.90
2212;DHT22;48849;48.758;9.158;2023-04-24T09:24:00;14.80;99.90
2212;DHT22;48849;48.758;9.158;2023-04-24T09:26:29;14.80;99.90
2212;DHT22;48849;48.758;9.158;2023-04-24T09:28:59;14.80;99.90
2212;DHT22;48849;48.758;9.158;2023-04-24T09:31:27;14.80;99.90
2212;DHT22;48849;48.758;9.158;2023-04-24T09:33:56;14.70;99.90
2212;DHT22;48849;48.758;9.158;2023-04-24T09:36:31;14.60;99.90
2212;DHT22;48849;48.758;9.158;2023-04-24T09:39:01;14.60;99.90
2212;DHT22;48849;48.758;9.158;2023-04-24T09:41:28;14.60;99.90
2212;DHT22;48849;48.758;9.158;2023-04-24T09:43:56;14.60;99.90
2212;DHT22;48849;48.758;9.158;2023-04-24T09:46:30;14.50;99.90
2212;DHT22;48849;48.758;9.158;2023-04-24T09:48:57;14.60;99.90
2212;DHT22;48849;48.758;9.158;2023-04-24T09:51:35;14.70;99.90
2212;DHT22;48849;48.758;9.158;2023-04-24T09:54:04;14.70;99.90
2212;DHT22;48849;48.758;9.158;2023-04-24T09:56:42;14.70;99.90
2212;DHT22;48849;48.758;9.158;2023-04-24T09:59:10;14.70;99.90
2212;DHT22;48849;48.758;9.158;2023-04-24T10:01:37;14.70;99.90
2212;DHT22;48849;48.758;9.158;2023-04-24T10:04:15;14.70;99.90
2212;DHT22;48849;48.758;9.158;2023-04-24T10:06:42;14.70;99.90
2212;DHT22;48849;48.758;9.158;2023-04-24T10:09:14;14.70;99.90
2212;DHT22;48849;48.758;9.158;2023-04-24T10:11:42;14.70;99.90
2212;DHT22;48849;48.758;9.158;2023-04-24T10:14:11;14.60;99.90
2212;DHT22;48849;48.758;9.158;2023-04-24T10:16:40;14.70;99.90
2212;DHT22;48849;48.758;9.158;2023-04-24T10:19:07;14.80;99.90
2212;DHT22;48849;48.758;9.158;2023-04-24T10:21:35;14.80;99.90
2212;DHT22;48849;48.758;9.158;2023-04-24T10:24:03;14.80;99.90
2212;DHT22;48849;48.758;9.158;2023-04-24T10:26:34;14.90;99.90
2212;DHT22;48849;48.758;9.158;2023-04-24T10:29:05;14.90;99.90
2212;DHT22;48849;48.758;9.158;2023-04-24T10:31:37;14.90;99.90
2212;DHT22;48849;48.758;9.158;2023-04-24T10:34:05;15.00;99.90
2212;DHT22;48849;48.758;9.158;2023-04-24T10:36:34;15.00;99.90
2212;DHT22;48849;48.758;9.158;2023-04-24T10:39:03;15.00;99.90
2212;DHT22;48849;48.758;9.158;2023-04-24T10:41:38;15.10;99.90
2212;DHT22;48849;48.758;9.158;2023-04-24T10:44:05;15.10;99.90
2212;DHT22;48849;48.758;9.158;2023-04-24T10:46:33;15.10;99.90
2212;DHT22;48849;48.758;9.158;2023-04-24T10:49:06;15.00;99.90
2212;DHT22;48849;48.758;9.158;2023-04-24T10:51:45;15.10;99.90
2212;DHT22;48849;48.758;9.158;2023-04-24T10:54:25;15.10;99.90
2212;DHT22;48849;48.758;9.158;2023-04-24T10:57:26;15.00;99.90
2212;DHT22;48849;48.758;9.158;2023-04-24T11:00:13;15.00;99.90
2212;DHT22;48849;48.758;9.158;2023-04-24T11:02:40;14.90;99.90
2212;DHT22;48849;48.758;9.158;2023-04-24T11:05:14;14.90;99.90
2212;DHT22;48849;48.758;9.158;2023-04-24T11:08:09;14.90;99.90
2212;DHT22;48849;48.758;9.158;2023-04-24T11:10:39;14.80;99.90
2212;DHT22;48849;48.758;9.158;2023-04-24T11:13:07;14.80;99.90
2212;DHT22;48849;48.758;9.158;2023-04-24T11:15:37;14.90;99.90
2212;DHT22;48849;48.758;9.158;2023-04-24T11:18:13;14.80;99.90
2212;DHT22;48849;48.758;9.158;2023-04-24T11:20:43;14.90;99.90
2212;DHT22;48849;48.758;9.158;2023-04-24T11:23:12;14.90;99.90
2212;DHT22;48849;48.758;9.158;2023-04-24T11:25:41;15.00;99.90
2212;DHT22;48849;48.758;9.158;2023-04-24T11:28:14;15.00;99.90
2212;DHT22;48849;48.758;9.158;2023-04-24T11:30:42;14.90;99.90
2212;DHT22;48849;48.758;9.158;2023-04-24T11:33:09;15.00;99.90
2212;DHT22;48849;48.758;9.158;2023-04-24T11:35:39;15.10;99.90
2212;DHT22;48849;48.758;9.158;2023-04-24T11:38:06;15.30;99.90
2212;DHT22;48849;48.758;9.158;2023-04-24T11:40:34;15.50;99.90
2212;DHT22;48849;48.758;9.158;2023-04-24T11:43:01;15.50;99.90
2212;DHT22;48849;48.758;9.158;2023-04-24T11:45:32;15.50;99.90
2212;DHT22;48849;48.758;9.158;2023-04-24T11:47:59;15.50;99.90
2212;DHT22;48849;48.758;9.158;2023-04-24T11:50:27;15.40;99.90
2212;DHT22;48849;48.758;9.158;2023-04-24T11:52:55;15.40;99.90
2212;DHT22;48849;48.758;9.158;2023-04-24T11:55:28;15.40;99.90
2212;DHT22;48849;48.758;9.158;2023-04-24T11:57:57;15.40;99.90
2212;DHT22;48849;48.758;9.158;2023-04-24T12:00:25;15.40;99.90
2212;DHT22;48849;48.758;9.158;2023-04-24T12:03:04;15.50;99.90
2212;DHT22;48849;48.758;9.158;2023-04-24T12:05:32;15.40;99.90
2212;DHT22;48849;48.758;9.158;2023-04-24T12:08:00;15.50;99.90
2212;DHT22;48849;48.758;9.158;2023-04-24T12:10:44;15.60;99.90
2212;DHT22;48849;48.758;9.158;2023-04-24T15:13:53;14.80;99.90
2212;DHT22;48849;48.758;9.158;2023-04-24T15:16:31;14.80;99.90
2212;DHT22;48849;48.758;9.158;2023-04-24T15:18:58;14.90;99.90
2212;DHT22;48849;48.758;9.158;2023-04-24T15:22:06;14.80;99.90
2212;DHT22;48849;48.758;9.158;2023-04-24T15:24:49;14.70;99.90
2212;DHT22;48849;48.758;9.158;2023-04-24T15:27:39;14.60;99.90
2212;DHT22;48849;48.758;9.158;2023-04-24T15:33:15;15.10;99.90
2212;DHT22;48849;48.758;9.158;2023-04-24T15:36:14;15.40;99.90
2212;DHT22;48849;48.758;9.158;2023-04-24T15:38:57;14.70;99.90
2212;DHT22;48849;48.758;9.158;2023-04-24T15:41:32;14.60;99.90
2212;DHT22;48849;48.758;9.158;2023-04-24T15:44:03;14.80;99.90
2212;DHT22;48849;48.758;9.158;2023-04-24T15:46:39;14.80;99.90
2212;DHT22;48849;48.758;9.158;2023-04-24T15:49:07;14.40;99.90
2212;DHT22;48849;48.758;9.158;2023-04-24T15:51:36;14.40;99.90
2212;DHT22;48849;48.758;9.158;2023-04-24T15:54:03;14.40;99.90
2212;DHT22;48849;48.758;9.158;2023-04-24T15:56:33;14.40;99.90
2212;DHT22;48849;48.758;9.158;2023-04-24T15:59:01;14.60;99.90
2212;DHT22;48849;48.758;9.158;2023-04-24T16:01:30;14.40;99.90
2212;DHT22;48849;48.758;9.158;2023-04-24T16:04:01;14.40;99.90
2212;DHT22;48849;48.758;9.158;2023-04-24T16:06:31;14.60;99.90
2212;DHT22;48849;48.758;9.158;2023-04-24T16:08:58;14.40;99.90
2212;DHT22;48849;48.758;9.158;2023-04-24T16:11:26;14.40;99.90
2212;DHT22;48849;48.758;9.158;2023-04-24T16:13:57;14.40;99.90
2212;DHT22;48849;48.758;9.158;2023-04-24T16:16:27;14.40;99.90
2212;DHT22;48849;48.758;9.158;2023-04-24T16:18:54;14.40;99.90
2212;DHT22;48849;48.758;9.158;2023-04-24T16:21:31;14.70;99.90
2212;DHT22;48849;48.758;9.158;2023-04-24T16:24:00;14.80;99.90
2212;DHT22;48849;48.758;9.158;2023-04-24T16:26:27;14.70;99.90
2212;DHT22;48849;48.758;9.158;2023-04-24T16:28:56;14.40;99.90
2212;DHT22;48849;48.758;9.158;2023-04-24T16:31:26;14.90;99.90
2212;DHT22;48849;48.758;9.158;2023-04-24T16:33:56;14.30;99.90
2212;DHT22;48849;48.758;9.158;2023-04-24T16:36:24;14.30;99.90
2212;DHT22;48849;48.758;9.158;2023-04-24T16:38:54;14.30;99.90
2212;DHT22;48849;48.758;9.158;2023-04-24T16:41:21;14.50;99.90
2212;DHT22;48849;48.758;9.158;2023-04-24T16:43:48;14.40;99.90
2212;DHT22;48849;48.758;9.158;2023-04-24T16:46:17;14.40;99.90
2212;DHT22;48849;48.758;9.158;2023-04-24T16:48:47;14.70;99.90
2212;DHT22;48849;48.758;9.158;2023-04-24T16:51:17;14.40;99.90
2212;DHT22;48849;48.758;9.158;2023-04-24T16:53:46;14.40;99.90
2212;DHT22;48849;48.758;9.158;2023-04-24T16:56:16;14.10;99.90
2212;DHT22;48849;48.758;9.158;2023-04-24T16:58:46;14.80;99.90
2212;DHT22;48849;48.758;9.158;2023-04-24T17:01:15;15.30;99.90
2212;DHT22;48849;48.758;9.158;2023-04-24T17:03:45;14.70;99.90
2212;DHT22;48849;48.758;9.158;2023-04-24T17:06:12;14.40;99.90
2212;DHT22;48849;48.758;9.158;2023-04-24T17:08:40;14.40;99.90
2212;DHT22;48849;48.758;9.158;2023-04-24T17:11:12;14.30;99.90
2212;DHT22;48849;48.758;9.158;2023-04-24T17:13:44;14.40;99.90
2212;DHT22;48849;48.758;9.158;2023-04-24T17:16:11;14.40;99.90
2212;DHT22;48849;48.758;9.158;2023-04-24T17:18:41;14.50;99.90
2212;DHT22;48849;48.758;9.158;2023-04-24T17:21:11;14.50;99.90
2212;DHT22;48849;48.758;9.158;2023-04-24T17:23:38;14.50;99.90
2212;DHT22;48849;48.758;9.158;2023-04-24T17:26:05;14.50;99.90
2212;DHT22;48849;48.758;9.158;2023-04-24T17:28:33;15.20;99.90
2212;DHT22;48849;48.758;9.158;2023-04-24T17:35:00;14.60;99.90
2212;DHT22;48849;48.758;9.158;2023-04-24T18:48:33;14.30;99.90
2212;DHT22;48849;48.758;9.158;2023-04-24T18:58:26;14.20;99.90
2212;DHT22;48849;48.758;9.158;2023-04-24T19:00:55;14.20;99.90
2212;DHT22;48849;48.758;9.158;2023-04-24T19:03:26;14.60;99.90
2212;DHT22;48849;48.758;9.158;2023-04-24T19:05:56;14.20;99.90
2212;DHT22;48849;48.758;9.158;2023-04-24T19:08:23;14.70;99.90
2212;DHT22;48849;48.758;9.158;2023-04-24T19:10:50;14.10;99.90
2212;DHT22;48849;48.758;9.158;2023-04-24T19:13:16;13.90;99.90
2212;DHT22;48849;48.758;9.158;2023-04-24T19:15:44;15.10;99.90
2212;DHT22;48849;48.758;9.158;2023-04-24T19:18:11;14.60;99.90
2212;DHT22;48849;48.758;9.158;2023-04-24T19:20:38;13.90;99.90
2212;DHT22;48849;48.758;9.158;2023-04-24T19:23:06;13.90;99.90
2212;DHT22;48849;48.758;9.158;2023-04-24T19:25:33;13.90;99.90
2212;DHT22;48849;48.758;9.158;2023-04-24T19:27:59;13.80;99.90
2212;DHT22;48849;48.758;9.158;2023-04-24T19:30:26;13.70;99.90
2212;DHT22;48849;48.758;9.158;2023-04-24T19:32:53;13.70;99.90
2212;DHT22;48849;48.758;9.158;2023-04-24T19:35:20;13.70;99.90
2212;DHT22;48849;48.758;9.158;2023-04-24T19:37:47;13.60;99.90
2212;DHT22;48849;48.758;9.158;2023-04-24T19:40:15;13.60;99.90
2212;DHT22;48849;48.758;9.158;2023-04-24T19:42:42;14.50;99.90
2212;DHT22;48849;48.758;9.158;2023-04-24T19:45:11;14.70;99.90
2212;DHT22;48849;48.758;9.158;2023-04-24T19:47:38;13.40;99.90
2212;DHT22;48849;48.758;9.158;2023-04-24T19:50:06;13.40;99.90
2212;DHT22;48849;48.758;9.158;2023-04-24T19:52:32;13.40;99.90
2212;DHT22;48849;48.758;9.158;2023-04-24T19:54:59;13.40;99.90
2212;DHT22;48849;48.758;9.158;2023-04-24T19:57:27;13.40;99.90
2212;DHT22;48849;48.758;9.158;2023-04-24T19:59:54;13.30;99.90
2212;DHT22;48849;48.758;9.158;2023-04-24T20:02:21;13.30;99.90
2212;DHT22;48849;48.758;9.158;2023-04-24T20:04:48;13.30;99.90
2212;DHT22;48849;48.758;9.158;2023-04-24T20:07:15;13.30;99.90
2212;DHT22;48849;48.758;9.158;2023-04-24T20:09:41;13.30;99.90
2212;DHT22;48849;48.758;9.158;2023-04-24T20:12:08;13.50;99.90
2212;DHT22;48849;48.758;9.158;2023-04-24T20:14:37;13.30;99.90
2212;DHT22;48849;48.758;9.158;2023-04-24T20:17:03;13.30;99.90
2212;DHT22;48849;48.758;9.158;2023-04-24T20:19:30;14.40;99.90
2212;DHT22;48849;48.758;9.158;2023-04-24T20:21:57;13.30;99.90
2212;DHT22;48849;48.758;9.158;2023-04-24T20:24:24;13.30;99.90